Time;durP1;ratioP1;P1;durP2;ratioP2;P2;SDS_P1;SDS_P2;PMS_P1;PMS_P2;Temp;Humidity;BMP_temperature;BMP_pressure;BME280_temperature;BME280_humidity;BME280_pressure;Samples;Min_cycle;Max_cycle;Signal;HPM_P1;HPM_P2
2022/10/26 00:01:14;;;;;;;39.47;15.15;;;9.90;99.90;;;8.65;100.00;101261.25;5019595;28;20030;-80
2022/10/26 00:03:42;;;;;;;32.22;14.27;;;9.90;99.90;;;8.65;100.00;101263.91;5001459;28;20625;-82
2022/10/26 00:06:23;;;;;;;41.92;15.43;;;9.90;99.90;;;8.65;100.00;101260.41;4986754;28;20172;-81
2022/10/26 00:08:49;;;;;;;39.25;15.35;;;9.90;99.90;;;8.64;100.00;101264.81;4988239;28;20034;-81
2022/10/26 00:11:16;;;;;;;35.03;17.00;;;9.90;99.90;;;8.65;100.00;101269.13;5018813;28;20041;-79
2022/10/26 00:13:43;;;;;;;38.63;16.00;;;9.90;99.90;;;8.68;100.00;101269.03;5002805;28;20026;-80
2022/10/26 00:16:21;;;;;;;34.92;16.73;;;9.90;99.90;;;8.68;100.00;101262.94;5019531;28;20077;-81
2022/10/26 00:18:47;;;;;;;37.80;17.13;;;9.90;99.90;;;8.70;100.00;101279.50;5004305;28;20041;-81
2022/10/26 00:21:16;;;;;;;34.78;17.30;;;9.90;99.90;;;8.71;100.00;101271.59;5020688;28;20034;-80
2022/10/26 00:23:42;;;;;;;42.50;17.20;;;10.00;99.90;;;8.76;100.00;101274.06;4984601;28;20033;-81
2022/10/26 00:26:08;;;;;;;44.63;16.98;;;10.00;99.90;;;8.77;100.00;101271.41;5003911;28;20030;-81
2022/10/26 00:28:34;;;;;;;41.17;16.10;;;10.00;99.90;;;8.79;100.00;101279.22;5003519;28;20038;-80
2022/10/26 00:31:10;;;;;;;43.92;17.15;;;10.00;99.90;;;8.81;100.00;101270.41;4987664;28;20031;-81
2022/10/26 00:33:36;;;;;;;41.42;16.13;;;10.00;99.90;;;8.82;100.00;101281.78;5021200;28;20080;-81
2022/10/26 00:36:02;;;;;;;39.70;17.17;;;10.10;99.90;;;8.82;100.00;101279.13;5009101;28;20121;-81
2022/10/26 00:38:28;;;;;;;38.13;15.85;;;10.00;99.90;;;8.81;100.00;101273.03;5008618;28;20033;-81
2022/10/26 00:40:54;;;;;;;44.20;16.42;;;10.10;99.90;;;8.81;100.00;101278.28;4991496;28;20030;-81
2022/10/26 00:43:25;;;;;;;41.05;16.33;;;10.10;99.90;;;8.81;100.00;101278.28;5006116;28;20041;-82
2022/10/26 00:45:54;;;;;;;40.53;16.63;;;10.10;99.90;;;8.82;100.00;101277.38;5006754;28;20060;-81
2022/10/26 00:48:30;;;;;;;41.75;17.25;;;10.10;99.90;;;8.83;100.00;101271.22;5009117;28;20052;-80
2022/10/26 00:50:59;;;;;;;41.30;16.45;;;10.00;99.90;;;8.84;100.00;101279.94;5023856;28;20700;-82
2022/10/26 00:53:26;;;;;;;49.85;17.52;;;10.10;99.90;;;8.85;100.00;101278.19;4991132;28;20067;-81
2022/10/26 00:55:52;;;;;;;38.15;16.95;;;10.10;99.90;;;8.86;100.00;101279.91;5021344;28;20033;-82
2022/10/26 00:58:23;;;;;;;43.63;17.52;;;10.10;99.90;;;8.86;100.00;101269.41;5007345;28;20513;-80
2022/10/26 01:00:50;;;;;;;33.45;16.45;;;10.10;99.90;;;8.87;100.00;101284.25;5009092;28;20092;-82
2022/10/26 01:03:16;;;;;;;37.88;16.23;;;10.10;99.90;;;8.81;100.00;101278.28;5006772;28;20083;-82
2022/10/26 01:05:48;;;;;;;43.50;17.65;;;10.00;99.90;;;8.76;100.00;101274.91;4987695;28;20025;-80
2022/10/26 01:08:16;;;;;;;42.92;17.58;;;10.00;99.90;;;8.71;100.00;101276.84;5006706;28;20025;-81
2022/10/26 01:10:42;;;;;;;40.30;18.65;;;10.00;99.90;;;8.72;100.00;101277.69;4988249;28;20021;-80
2022/10/26 01:13:09;;;;;;;43.83;17.73;;;10.00;99.90;;;8.71;100.00;101286.50;5006228;28;20032;-82
2022/10/26 01:15:52;;;;;;;58.85;19.33;;;10.00;99.90;;;8.72;100.00;101283.78;5023683;28;20617;-82
2022/10/26 01:18:48;;;;;;;48.30;18.38;;;10.00;99.90;;;8.72;100.00;101275.91;5005453;28;20371;-82
2022/10/26 01:21:47;;;;;;;55.92;18.65;;;10.00;99.90;;;8.70;100.00;101284.75;4992182;28;20033;-80
2022/10/26 01:25:10;;;;;;;53.65;18.73;;;10.00;99.90;;;8.68;100.00;101281.31;5021541;28;20026;-80
2022/10/26 01:27:49;;;;;;;48.47;18.67;;;9.90;99.90;;;8.63;100.00;101284.06;5015074;28;20038;-82
2022/10/26 01:30:40;;;;;;;45.95;17.80;;;9.90;99.90;;;8.62;100.00;101287.63;5019432;28;20121;-81
2022/10/26 01:33:19;;;;;;;43.03;18.63;;;9.90;99.90;;;8.60;100.00;101294.69;5004400;28;20060;-82
2022/10/26 01:36:11;;;;;;;50.13;18.95;;;9.90;99.90;;;8.58;100.00;101286.84;5001912;28;20054;-81
2022/10/26 01:38:46;;;;;;;43.53;18.52;;;9.80;99.90;;;8.57;100.00;101289.50;5019724;28;20525;-82
2022/10/26 01:41:42;;;;;;;41.20;17.13;;;9.80;99.90;;;8.56;100.00;101285.16;5003566;28;20026;-81
2022/10/26 01:44:19;;;;;;;46.95;18.27;;;9.80;99.90;;;8.49;100.00;101275.75;4993027;28;20056;-81
2022/10/26 01:46:50;;;;;;;48.70;19.30;;;9.70;99.90;;;8.42;100.00;101277.69;5002969;28;20065;-81
2022/10/26 01:49:22;;;;;;;58.30;18.90;;;9.70;99.90;;;8.41;100.00;101275.97;4990582;28;20026;-82
2022/10/26 01:51:49;;;;;;;55.60;18.88;;;9.70;99.90;;;8.42;100.00;101282.94;5016814;28;20026;-82
2022/10/26 01:54:15;;;;;;;51.22;19.98;;;9.70;99.90;;;8.43;100.00;101279.41;4983776;28;20027;-81
2022/10/26 01:56:47;;;;;;;51.60;20.75;;;9.70;99.90;;;8.43;100.00;101284.66;5018863;28;20057;-80
2022/10/26 01:59:39;;;;;;;57.47;20.98;;;9.70;99.90;;;8.43;100.00;101278.56;5004212;28;20376;-80
2022/10/26 02:02:53;;;;;;;48.95;18.85;;;9.70;99.90;;;8.40;100.00;101289.94;5001229;28;20065;-81
2022/10/26 02:06:15;;;;;;;53.58;20.50;;;9.70;99.90;;;8.37;100.00;101287.44;5002211;28;20068;-82
2022/10/26 02:09:20;;;;;;;53.75;20.80;;;9.60;99.90;;;8.33;100.00;101280.53;4972678;28;20457;-80
2022/10/26 02:11:50;;;;;;;52.03;19.90;;;9.60;99.90;;;8.36;100.00;101277.84;4967968;28;20709;-81
2022/10/26 02:14:24;;;;;;;52.22;21.48;;;9.60;99.90;;;8.37;100.00;101282.19;5003601;28;20048;-82
2022/10/26 02:17:06;;;;;;;53.05;21.38;;;9.60;99.90;;;8.38;100.00;101279.53;5003069;28;20101;-81
2022/10/26 02:20:10;;;;;;;33.28;12.25;;;9.60;99.90;;;8.32;100.00;101279.69;5002268;28;20503;-81
2022/10/26 02:22:42;;;;;;;29.35;13.38;;;9.50;99.90;;;8.16;100.00;101276.66;5004340;28;20654;-82
2022/10/26 02:25:15;;;;;;;45.65;18.52;;;9.40;99.90;;;8.05;100.00;101276.06;5002639;28;20030;-82
2022/10/26 02:27:46;;;;;;;64.20;21.50;;;9.40;99.90;;;8.00;100.00;101281.44;4985074;28;20100;-81
2022/10/26 02:30:12;;;;;;;65.60;22.25;;;9.30;99.90;;;8.01;100.00;101283.16;5003498;28;20022;-81
2022/10/26 02:32:45;;;;;;;75.05;24.60;;;9.30;99.90;;;8.04;100.00;101269.09;4984782;28;20034;-82
2022/10/26 02:35:12;;;;;;;82.18;25.13;;;9.40;99.90;;;8.06;100.00;101277.78;4988958;28;20045;-82
2022/10/26 02:37:40;;;;;;;69.78;21.40;;;9.40;99.90;;;8.05;100.00;101268.19;5004937;28;20030;-82
2022/10/26 02:40:13;;;;;;;68.10;22.67;;;9.40;99.90;;;8.07;100.00;101273.41;5005440;28;20561;-82
2022/10/26 02:42:42;;;;;;;75.60;23.45;;;9.40;99.90;;;8.03;100.00;101272.63;4982359;28;20522;-82
2022/10/26 02:45:15;;;;;;;72.18;23.85;;;9.40;99.90;;;8.04;100.00;101289.25;5021960;28;20036;-82
2022/10/26 02:47:41;;;;;;;90.05;23.60;;;9.30;99.90;;;7.95;100.00;101280.72;5005488;28;20038;-82
2022/10/26 02:50:07;;;;;;;119.25;25.42;;;9.30;99.90;;;7.86;100.00;101280.06;5023808;28;20415;-82
2022/10/26 02:53:03;;;;;;;99.90;24.15;;;9.20;99.90;;;7.73;100.00;101282.16;5019820;28;20037;-81
2022/10/26 02:55:45;;;;;;;96.85;23.00;;;9.10;99.90;;;7.60;100.00;101276.38;5007430;28;20069;-83
2022/10/26 02:58:39;;;;;;;62.78;20.30;;;9.00;99.90;;;7.58;100.00;101276.44;5020427;28;20030;-80
2022/10/26 03:01:06;;;;;;;147.75;25.40;;;8.90;99.90;;;7.48;100.00;101282.78;5005053;28;20413;-81
2022/10/26 03:03:32;;;;;;;593.78;33.58;;;8.90;99.90;;;7.37;100.00;101269.09;4989935;28;20044;-80
2022/10/26 03:05:57;;;;;;;614.40;34.97;;;8.80;99.90;;;7.33;100.00;101280.56;4988046;28;20210;-82
2022/10/26 03:08:23;;;;;;;417.10;32.15;;;8.80;99.90;;;7.33;100.00;101275.31;5024063;28;20030;-80
2022/10/26 03:10:54;;;;;;;375.77;32.38;;;8.80;99.90;;;7.31;100.00;101279.72;5005057;28;20033;-81
2022/10/26 03:13:19;;;;;;;512.95;34.25;;;8.70;99.90;;;7.27;100.00;101272.84;5005693;28;20022;-82
2022/10/26 03:15:45;;;;;;;409.20;31.77;;;8.70;99.90;;;7.23;100.00;101274.66;5004026;28;20120;-82
2022/10/26 03:18:11;;;;;;;200.93;27.40;;;8.70;99.90;;;7.32;100.00;101286.66;4987305;28;20030;-82
2022/10/26 03:20:37;;;;;;;45.88;17.33;;;8.70;99.90;;;7.35;100.00;101284.00;5008100;28;20099;-83
2022/10/26 03:23:03;;;;;;;43.92;16.55;;;8.70;99.90;;;7.37;100.00;101282.19;4986549;28;20075;-81
2022/10/26 03:25:30;;;;;;;173.20;22.42;;;8.70;99.90;;;7.35;100.00;101291.84;5006687;28;20038;-83
2022/10/26 03:28:02;;;;;;;405.17;27.65;;;8.70;99.90;;;7.17;100.00;101285.28;4986634;28;20632;-82
2022/10/26 03:30:29;;;;;;;526.03;30.27;;;8.60;99.90;;;7.05;100.00;101286.44;5005239;28;20390;-83
2022/10/26 03:32:55;;;;;;;621.70;32.42;;;8.50;99.90;;;6.95;100.00;101282.28;5002263;28;20117;-82
2022/10/26 03:35:21;;;;;;;741.00;31.73;;;8.50;99.90;;;6.95;100.00;101295.38;5004384;28;20510;-82
2022/10/26 03:37:50;;;;;;;705.92;28.60;;;;;;;6.97;100.00;101293.59;5022202;28;20037;-82
2022/10/26 03:40:16;;;;;;;575.72;23.55;;;8.50;99.90;;;7.01;100.00;101290.00;5006072;28;20026;-83
2022/10/26 03:42:42;;;;;;;244.85;18.83;;;8.40;99.90;;;7.04;100.00;101287.34;5004691;28;20027;-81
2022/10/26 03:45:09;;;;;;;679.95;31.38;;;8.40;99.90;;;6.99;100.00;101282.19;5019101;28;20025;-83
2022/10/26 03:47:44;;;;;;;700.53;35.72;;;8.40;99.90;;;6.98;100.00;101284.88;4986172;28;20451;-81
2022/10/26 03:50:12;;;;;;;286.20;21.00;;;8.40;99.90;;;7.01;100.00;101290.00;5006889;28;20033;-81
2022/10/26 03:52:38;;;;;;;996.33;51.28;;;8.40;99.90;;;7.02;100.00;101281.28;4988671;28;20026;-82
2022/10/26 03:55:09;;;;;;;982.28;44.30;;;8.40;99.90;;;6.97;100.00;101283.97;4991517;28;20026;-83
2022/10/26 03:57:42;;;;;;;371.98;24.08;;;8.40;99.90;;;6.97;100.00;101285.75;5021865;28;20030;-83
2022/10/26 04:00:16;;;;;;;364.20;21.85;;;8.30;99.90;;;6.97;100.00;101283.13;5006538;28;20117;-83
2022/10/26 04:02:55;;;;;;;813.08;35.85;;;8.30;99.90;;;6.96;100.00;101276.19;5007072;28;20493;-83
2022/10/26 04:05:24;;;;;;;616.72;35.55;;;8.30;99.90;;;6.88;100.00;101278.09;5006046;28;20152;-83
2022/10/26 04:07:59;;;;;;;520.80;30.15;;;8.30;99.90;;;6.92;100.00;101290.22;5023006;28;20037;-83
2022/10/26 04:10:26;;;;;;;560.90;28.70;;;8.20;99.90;;;6.89;100.00;101287.66;4991804;28;20033;-82
2022/10/26 04:12:53;;;;;;;39.65;15.15;;;8.30;99.90;;;6.88;100.00;101288.56;4989557;28;20030;-81
2022/10/26 04:15:20;;;;;;;34.95;13.50;;;8.20;99.90;;;6.85;100.00;101286.91;5003731;28;20038;-83
2022/10/26 04:17:47;;;;;;;28.33;13.63;;;8.20;99.90;;;6.85;100.00;101297.38;5006266;28;20034;-83
2022/10/26 04:20:13;;;;;;;448.63;23.50;;;8.20;99.90;;;6.85;100.00;101301.75;4991735;28;20032;-82
2022/10/26 04:22:39;;;;;;;483.52;24.05;;;8.20;99.90;;;6.85;100.00;101292.13;5023451;28;20022;-84
2022/10/26 04:25:06;;;;;;;616.10;30.92;;;8.20;99.90;;;6.85;100.00;101291.28;5004451;28;20040;-81
2022/10/26 04:27:32;;;;;;;657.08;34.15;;;8.20;99.90;;;6.73;100.00;101289.78;5003085;28;20060;-83
2022/10/26 04:29:57;;;;;;;515.90;30.02;;;8.10;99.90;;;6.66;100.00;101294.28;4986228;28;20030;-84
2022/10/26 04:32:23;;;;;;;608.95;34.42;;;8.10;99.90;;;6.58;100.00;101298.81;5003979;28;20038;-83
2022/10/26 04:34:53;;;;;;;719.97;33.47;;;8.00;99.90;;;6.52;100.00;101299.81;4987470;28;20034;-83
2022/10/26 04:37:19;;;;;;;691.08;30.45;;;8.00;99.90;;;6.54;100.00;101299.75;4989135;28;20093;-83
2022/10/26 04:39:44;;;;;;;787.45;33.65;;;8.00;99.90;;;6.49;100.00;101302.47;4989182;28;20117;-84
2022/10/26 04:42:10;;;;;;;676.72;35.70;;;7.90;99.90;;;6.49;100.00;101301.63;4989664;28;20032;-83
2022/10/26 04:44:36;;;;;;;523.53;23.73;;;7.90;99.90;;;6.46;100.00;101299.09;5002576;28;20046;-83
2022/10/26 04:47:02;;;;;;;497.50;26.70;;;7.90;99.90;;;6.46;100.00;101307.78;5005734;28;20081;-83
2022/10/26 04:49:30;;;;;;;540.38;31.70;;;7.80;99.90;;;6.41;100.00;101304.38;5005607;28;20077;-82
2022/10/26 04:51:58;;;;;;;595.92;32.17;;;7.80;99.90;;;6.35;100.00;101304.53;5004138;28;20026;-83
2022/10/26 04:54:23;;;;;;;55.10;10.35;;;7.70;99.90;;;6.32;100.00;101294.97;5022055;28;20049;-83
2022/10/26 04:56:50;;;;;;;21.90;9.18;;;7.70;99.90;;;6.32;100.00;101300.19;5006830;28;20517;-83
2022/10/26 04:59:16;;;;;;;32.05;8.23;;;7.70;99.90;;;6.27;100.00;101302.03;5008159;28;20034;-83
2022/10/26 05:01:42;;;;;;;36.38;7.93;;;7.60;99.90;;;6.23;100.00;101307.38;4986160;28;20432;-82
2022/10/26 05:04:15;;;;;;;22.77;9.07;;;7.60;99.90;;;6.18;100.00;101297.00;5033415;23;20061;-81
2022/10/26 05:06:41;;;;;;;53.03;8.50;;;7.50;99.90;;;6.11;100.00;101296.25;5018218;28;20028;-81
2022/10/26 05:09:07;;;;;;;42.90;8.07;;;7.50;99.90;;;6.05;100.00;101298.13;5036079;28;20600;-81
2022/10/26 05:11:32;;;;;;;74.07;9.07;;;7.40;99.90;;;5.98;100.00;101304.34;5041793;28;20032;-80
2022/10/26 05:13:58;;;;;;;442.90;22.17;;;7.30;99.90;;;5.90;100.00;101297.47;5012433;28;20406;-82
2022/10/26 05:16:24;;;;;;;13.85;7.68;;;7.30;99.90;;;5.84;100.00;101304.56;5013657;28;20119;-80
2022/10/26 05:18:53;;;;;;;650.60;28.63;;;7.20;99.90;;;5.81;100.00;101302.00;5030201;28;20053;-81
2022/10/26 05:21:18;;;;;;;158.07;10.63;;;7.20;99.90;;;5.76;100.00;101289.88;5033289;28;20042;-81
2022/10/26 05:23:54;;;;;;;14.93;7.18;;;7.10;99.90;;;5.72;100.00;101297.78;5039230;23;20080;-80
2022/10/26 05:26:23;;;;;;;10.30;6.10;;;7.10;99.90;;;5.67;100.00;101297.88;5029772;28;20038;-80
2022/10/26 05:28:50;;;;;;;22.40;7.07;;;7.00;99.90;;;5.60;100.00;101313.69;5028639;28;20141;-81
2022/10/26 05:31:16;;;;;;;12.75;5.63;;;7.00;99.90;;;5.54;100.00;101307.66;5030344;28;20080;-81
2022/10/26 05:33:42;;;;;;;332.98;22.80;;;6.90;99.90;;;5.43;100.00;101306.13;5023825;28;20026;-81
2022/10/26 05:36:13;;;;;;;559.97;29.73;;;6.90;99.90;;;5.43;100.00;101309.59;5022969;28;20125;-82
2022/10/26 05:38:39;;;;;;;501.23;29.90;;;6.90;99.90;;;5.49;100.00;101313.88;5011248;28;20029;-81
2022/10/26 05:41:05;;;;;;;456.17;40.60;;;6.90;99.90;;;5.50;100.00;101318.19;5019710;28;20442;-80
2022/10/26 05:43:30;;;;;;;503.05;26.38;;;6.90;99.90;;;5.49;100.00;101316.50;5026814;28;20028;-81
2022/10/26 05:45:56;;;;;;;377.92;18.15;;;6.90;99.90;;;5.46;100.00;101317.38;5023200;28;20034;-81
2022/10/26 05:48:22;;;;;;;408.25;21.35;;;6.90;99.90;;;5.44;100.00;101321.78;5023547;28;20041;-81
2022/10/26 05:50:58;;;;;;;377.48;20.30;;;6.90;99.90;;;5.40;100.00;101321.84;5020291;28;20053;-81
2022/10/26 05:53:23;;;;;;;335.40;19.75;;;6.80;99.90;;;5.30;100.00;101319.38;5018841;28;20951;-80
2022/10/26 05:55:49;;;;;;;391.70;25.25;;;6.80;99.90;;;5.29;100.00;101335.06;5021028;28;20029;-80
2022/10/26 05:58:24;;;;;;;354.70;23.92;;;6.80;99.90;;;5.29;100.00;101329.84;5011250;28;20018;-79
2022/10/26 06:01:02;;;;;;;307.85;22.50;;;6.70;99.90;;;5.31;100.00;101328.06;5011378;28;20021;-80
2022/10/26 06:04:12;;;;;;;258.65;19.42;;;6.70;99.90;;;5.36;100.00;101339.31;5039882;28;20121;-80
2022/10/26 06:06:44;;;;;;;117.07;16.60;;;6.70;99.90;;;5.36;100.00;101336.72;4991673;28;20069;-81
2022/10/26 06:09:17;;;;;;;34.28;10.63;;;6.70;99.90;;;5.43;100.00;101343.56;4985362;28;20027;-81
2022/10/26 06:11:50;;;;;;;60.35;13.90;;;6.80;99.90;;;5.51;100.00;101351.28;5009309;28;20506;-81
2022/10/26 06:14:16;;;;;;;508.27;30.63;;;6.80;99.90;;;5.58;100.00;101345.06;5021308;28;20037;-81
2022/10/26 06:17:07;;;;;;;376.45;19.67;;;6.90;99.90;;;5.66;100.00;101339.69;5032637;28;20638;-80
2022/10/26 06:20:07;;;;;;;566.38;28.25;;;6.90;99.90;;;5.73;100.00;101346.56;5025809;28;20025;-81
2022/10/26 06:22:59;;;;;;;612.17;32.70;;;7.00;99.90;;;5.80;100.00;101345.56;5038499;28;20116;-81
2022/10/26 06:26:12;;;;;;;667.83;38.15;;;7.00;99.90;;;5.93;100.00;101360.16;5026926;28;20033;-81
2022/10/26 06:29:16;;;;;;;31.63;12.05;;;7.10;99.90;;;6.10;100.00;101353.81;5023599;28;20120;-81
2022/10/26 06:31:45;;;;;;;216.10;14.60;;;7.30;99.90;;;6.21;100.00;101364.06;5039476;28;20433;-81
2022/10/26 06:34:17;;;;;;;91.30;10.45;;;7.30;99.90;;;6.22;100.00;101364.06;5031466;28;20386;-81
2022/10/26 06:36:47;;;;;;;257.38;12.63;;;7.30;99.90;;;6.20;100.00;101368.44;5040043;28;20406;-80
2022/10/26 06:39:18;;;;;;;33.00;7.03;;;7.20;99.90;;;6.21;100.00;101364.06;5023972;28;20042;-81
2022/10/26 06:41:44;;;;;;;0.00;0.00;;;7.30;99.90;;;6.27;100.00;101363.97;5031294;28;20501;-80
2022/10/26 06:44:21;;;;;;;4.57;1.90;;;7.30;99.90;;;6.44;100.00;101374.13;5040121;28;20034;-80
2022/10/26 06:47:06;;;;;;;61.67;11.98;;;7.40;99.90;;;7.15;100.00;101381.38;5010013;28;20522;-80
2022/10/26 06:50:02;;;;;;;297.30;26.00;;;7.70;99.90;;;8.63;100.00;101392.56;5008943;28;20061;-80
2022/10/26 06:52:41;;;;;;;115.68;18.30;;;8.20;99.90;;;10.10;100.00;101395.97;5021801;28;20642;-80
2022/10/26 06:55:15;;;;;;;39.95;14.35;;;9.00;99.90;;;11.59;97.29;101401.88;5021301;28;20037;-80
2022/10/26 06:57:42;;;;;;;39.75;14.63;;;9.90;99.90;;;12.82;89.38;101399.34;5040914;28;20034;-81
2022/10/26 07:00:23;;;;;;;66.63;16.17;;;10.70;99.90;;;13.77;83.17;101386.06;5040501;28;20120;-80
2022/10/26 07:02:49;;;;;;;29.90;10.98;;;11.60;99.90;;;15.13;78.54;101394.00;5041005;28;20520;-81
2022/10/26 07:05:16;;;;;;;21.63;10.77;;;12.50;99.90;;;15.98;74.48;101389.25;5021889;28;20045;-81
2022/10/26 07:07:48;;;;;;;19.92;9.45;;;13.40;99.90;;;16.93;70.88;101394.16;5030421;28;20026;-80
2022/10/26 07:10:14;;;;;;;18.45;9.80;;;14.30;99.90;;;17.92;67.35;101401.97;5023173;28;20395;-80
2022/10/26 07:12:40;;;;;;;26.00;10.35;;;15.20;99.90;;;18.69;65.06;101398.56;5020852;28;20048;-81
2022/10/26 07:15:12;;;;;;;16.48;7.72;;;16.00;99.90;;;19.10;63.40;101406.31;5030387;28;20550;-80
2022/10/26 07:17:46;;;;;;;248.35;17.35;;;16.20;99.90;;;16.27;67.13;101394.66;5029214;28;20034;-80
2022/10/26 07:20:16;;;;;;;20.13;8.88;;;15.90;99.90;;;14.92;71.96;101395.19;5028665;28;20022;-81
2022/10/26 07:22:57;;;;;;;50.05;11.75;;;15.30;99.90;;;13.90;75.45;101399.56;5025833;28;20030;-81
2022/10/26 07:25:25;;;;;;;22.27;11.05;;;14.70;99.90;;;14.64;77.08;101415.22;5029155;28;20021;-81
2022/10/26 07:27:51;;;;;;;24.60;11.20;;;14.90;99.90;;;16.67;72.22;101429.44;5016109;28;20028;-81
2022/10/26 07:30:17;;;;;;;18.67;9.15;;;15.60;99.90;;;17.90;68.38;101435.84;5040949;28;20057;-80
2022/10/26 07:32:42;;;;;;;15.68;7.82;;;16.50;99.90;;;18.96;65.25;101439.34;5028007;28;20025;-80
2022/10/26 07:35:14;;;;;;;22.35;6.90;;;17.50;99.90;;;19.62;62.38;101439.91;5030544;28;20024;-81
2022/10/26 07:37:39;;;;;;;16.35;7.40;;;18.30;99.90;;;20.02;61.02;101436.09;5014034;28;20121;-81
2022/10/26 07:40:09;;;;;;;14.57;8.23;;;18.80;99.90;;;20.03;60.09;101424.47;5008003;28;20037;-81
2022/10/26 07:42:43;;;;;;;11.88;7.90;;;18.80;99.90;;;17.81;63.65;101425.78;5021342;28;20044;-80
2022/10/26 07:45:10;;;;;;;13.85;8.10;;;18.10;99.90;;;16.52;67.66;101418.81;5032727;28;20021;-81
2022/10/26 07:47:38;;;;;;;18.95;9.02;;;17.20;99.90;;;15.63;70.67;101426.63;5042751;28;20496;-81
2022/10/26 07:50:10;;;;;;;18.38;9.73;;;16.80;99.90;;;16.79;69.93;101442.00;5013120;28;20517;-81
2022/10/26 07:52:42;;;;;;;20.67;9.60;;;17.00;99.90;;;16.75;69.25;101437.81;5039378;28;20036;-81
2022/10/26 07:55:15;;;;;;;17.85;9.45;;;16.90;99.90;;;15.68;71.69;101436.97;5039593;28;20060;-80
2022/10/26 07:57:42;;;;;;;15.35;9.57;;;16.60;99.90;;;15.08;74.30;101433.19;5014432;28;20037;-81
2022/10/26 08:00:14;;;;;;;21.65;10.60;;;16.10;99.90;;;14.52;76.07;101442.34;5033632;28;20029;-81
2022/10/26 08:02:42;;;;;;;22.77;10.95;;;15.60;99.90;;;14.32;77.57;101440.72;5035695;28;20025;-81
2022/10/26 08:05:08;;;;;;;20.98;11.35;;;15.30;99.90;;;14.12;78.95;101441.69;5032716;28;20025;-81
2022/10/26 08:07:41;;;;;;;20.77;11.38;;;15.10;99.90;;;14.54;79.04;101451.91;5029524;28;20116;-81
2022/10/26 08:10:11;;;;;;;18.10;11.20;;;15.20;99.90;;;14.33;78.62;101447.72;5011221;28;20080;-81
2022/10/26 08:12:37;;;;;;;18.20;10.77;;;15.10;99.90;;;13.93;80.32;101455.88;5026083;28;20033;-81
2022/10/26 08:15:04;;;;;;;21.70;11.80;;;14.90;99.90;;;13.65;82.30;101455.47;5043365;28;20024;-81
2022/10/26 08:17:30;;;;;;;21.75;12.05;;;14.70;99.90;;;13.39;83.50;101447.00;5023588;28;20020;-81
2022/10/26 08:19:55;;;;;;;24.90;13.18;;;14.40;99.90;;;13.16;85.31;101445.38;5045337;28;20099;-81
2022/10/26 08:22:29;;;;;;;27.58;12.50;;;14.20;99.90;;;13.29;86.27;101449.22;5039212;28;20117;-81
2022/10/26 08:24:55;;;;;;;22.50;13.18;;;14.30;99.90;;;13.72;85.93;101452.47;5027416;28;20033;-81
2022/10/26 08:27:21;;;;;;;23.00;13.02;;;14.80;99.90;;;14.82;84.05;101455.81;5025311;28;20041;-81
2022/10/26 08:29:47;;;;;;;26.45;12.02;;;15.60;99.90;;;15.79;79.99;101458.53;5044013;28;20569;-82
2022/10/26 08:32:20;;;;;;;19.63;12.20;;;16.60;99.90;;;16.64;76.70;101461.53;5025970;28;20082;-81
2022/10/26 08:34:46;;;;;;;18.42;11.32;;;17.50;99.90;;;17.54;73.87;101460.41;5031426;28;20030;-81
2022/10/26 08:37:11;;;;;;;18.13;11.20;;;18.30;99.90;;;18.12;71.26;101467.28;5023556;28;20162;-81
2022/10/26 08:39:37;;;;;;;20.65;10.32;;;18.90;99.90;;;18.50;69.34;101462.97;5029393;28;20043;-81
2022/10/26 08:42:29;;;;;;;26.00;10.93;;;19.40;99.90;;;18.85;68.59;101457.88;5040931;28;20096;-81
2022/10/26 08:45:23;;;;;;;22.45;10.93;;;19.90;99.90;;;19.17;67.59;101463.63;5010879;28;20117;-81
2022/10/26 08:47:55;;;;;;;23.75;10.48;;;20.10;99.90;;;19.49;66.71;101465.81;5043703;28;20405;-82
2022/10/26 08:50:42;;;;;;;18.15;11.02;;;20.30;99.90;;;19.66;66.18;101469.94;5041301;28;20045;-82
2022/10/26 08:53:41;;;;;;;18.27;11.27;;;20.40;99.90;;;19.57;66.09;101474.13;5026661;28;20037;-82
2022/10/26 08:56:24;;;;;;;17.98;10.93;;;20.30;99.90;;;19.52;65.97;101480.75;5008031;28;20435;-79
2022/10/26 08:59:25;;;;;;;17.55;11.18;;;20.20;99.90;;;19.45;66.50;101483.88;5047627;28;20021;-80
2022/10/26 09:01:55;;;;;;;24.38;10.98;;;20.00;99.90;;;19.40;67.25;101478.00;5034262;28;20554;-82
2022/10/26 09:04:44;;;;;;;22.33;11.57;;;19.80;99.90;;;19.27;67.51;101474.53;5044549;28;20025;-82
2022/10/26 09:07:52;;;;;;;20.00;11.10;;;19.60;99.90;;;18.69;68.33;101467.91;5026724;28;20072;-81
2022/10/26 09:11:21;;;;;;;24.63;11.88;;;19.20;99.90;;;17.79;70.50;101483.63;5041739;28;20036;-84
2022/10/26 09:14:20;;;;;;;19.10;9.95;;;18.30;99.90;;;16.82;74.48;101479.06;4964751;28;20070;-82
2022/10/26 09:16:52;;;;;;;18.70;11.48;;;17.80;99.90;;;16.42;77.18;101478.78;4980564;28;20031;-81
2022/10/26 09:19:52;;;;;;;22.73;9.45;;;17.50;99.90;;;16.30;78.49;101480.34;5014285;28;20047;-83
2022/10/26 09:22:26;;;;;;;19.73;9.75;;;17.30;99.90;;;16.25;80.40;101478.91;5025310;28;20063;-82
2022/10/26 09:24:59;;;;;;;25.50;10.27;;;17.20;99.90;;;16.14;80.83;101477.72;5024641;28;20543;-82
2022/10/26 09:27:46;;;;;;;24.02;10.52;;;17.20;99.90;;;16.19;81.40;101477.47;5028993;28;20052;-82
2022/10/26 09:30:25;;;;;;;15.02;10.13;;;17.20;99.90;;;16.22;81.80;101473.75;5027486;28;20044;-82
2022/10/26 09:32:56;;;;;;;17.70;10.57;;;17.30;99.90;;;16.24;82.50;101474.53;5018117;28;20017;-82
2022/10/26 09:35:48;;;;;;;20.02;10.80;;;17.30;99.90;;;16.19;82.37;101470.34;5042392;28;20072;-82
2022/10/26 09:38:45;;;;;;;21.10;10.90;;;17.30;99.90;;;16.19;83.08;101467.69;5039316;28;20053;-82
2022/10/26 09:41:38;;;;;;;16.05;10.35;;;17.20;99.90;;;16.19;82.97;101461.50;5027445;28;20406;-82
2022/10/26 09:44:35;;;;;;;23.75;11.70;;;17.20;99.90;;;16.22;83.73;101471.09;5023647;28;20029;-82
2022/10/26 09:47:12;;;;;;;20.17;12.23;;;17.20;99.90;;;16.25;83.97;101469.13;5043433;28;20634;-82
2022/10/26 09:50:25;;;;;;;17.33;9.70;;;17.20;99.90;;;16.29;83.89;101470.66;5044404;28;20045;-82
2022/10/26 09:52:51;;;;;;;25.42;11.55;;;17.20;99.90;;;16.27;83.54;101479.69;4999116;28;20036;-82
2022/10/26 09:55:21;;;;;;;12.18;6.80;;;17.20;99.90;;;16.32;84.16;101481.09;5029861;28;20514;-83
2022/10/26 09:57:56;;;;;;;18.00;10.75;;;17.20;99.90;;;16.34;83.82;101484.53;5027123;28;20060;-83
2022/10/26 10:00:25;;;;;;;22.40;10.88;;;17.30;99.90;;;16.39;83.68;101485.13;5031661;28;20025;-81
2022/10/26 10:02:59;;;;;;;11.55;10.07;;;17.30;99.90;;;16.42;83.78;101477.94;5013393;28;20037;-83
2022/10/26 10:05:41;;;;;;;12.57;6.85;;;17.20;99.90;;;16.36;83.88;101477.31;5046706;28;20127;-82
2022/10/26 10:08:26;;;;;;;15.35;8.55;;;17.30;99.90;;;16.42;84.30;101489.41;5029909;28;20042;-83
2022/10/26 10:11:17;;;;;;;13.57;7.65;;;17.30;99.90;;;16.41;83.77;101482.34;5028198;28;20514;-83
2022/10/26 10:13:45;;;;;;;15.57;7.90;;;17.30;99.90;;;16.42;83.80;101486.75;5014496;28;20041;-82
2022/10/26 10:16:27;;;;;;;18.63;8.45;;;17.30;99.90;;;16.33;83.30;101476.66;5043815;28;20431;-82
2022/10/26 10:18:59;;;;;;;16.67;8.75;;;17.20;99.90;;;16.30;83.68;101480.34;5026838;28;20037;-83
2022/10/26 10:21:43;;;;;;;17.35;9.00;;;17.20;99.90;;;16.24;85.38;101475.41;5012054;28;20040;-82
2022/10/26 10:24:34;;;;;;;14.63;7.88;;;17.10;99.90;;;16.16;85.86;101475.00;5027733;28;20036;-84
2022/10/26 10:27:20;;;;;;;17.15;9.15;;;17.00;99.90;;;16.13;85.72;101472.50;5017449;28;20033;-83
2022/10/26 10:29:55;;;;;;;22.42;10.85;;;17.00;99.90;;;16.12;85.52;101476.97;5036898;28;20044;-83
2022/10/26 10:32:25;;;;;;;21.33;10.70;;;16.90;99.90;;;16.03;85.41;101476.66;5048245;28;20545;-82